Terminal Aerodrome Forecast
Issued by NWS Grand Forks, ND

Home | Current Version | Previous Version | Graphics & Text | Print | Product List | Glossary On
Versions: 1 2 3 4 5 6 7 8 9 10 11 12 13 14 15 16 17
000
FTUS43 KFGF 230247 AAA
TAFGFK
TAF AMD
KGFK 230247Z 2303/2324 29016G22KT P6SM SCT150
     FM230400 29014KT P6SM BKN120
     FM230700 29015KT P6SM BKN090
     FM231200 31018G24KT P6SM BKN025
     FM231600 31019G27KT P6SM BKN035=

USA.gov is the U.S. government's official web portal to all federal, state and local government web resources and services.